sensor_id;sensor_type;location;lat;lon;timestamp;pressure;altitude;pressure_sealevel;temperature;humidity
21817;BME280;13247;47.504;7.382;2023-02-20T00:02:12;98568.19;;;8.94;100.00
21817;BME280;13247;47.504;7.382;2023-02-20T00:04:57;98576.06;;;8.93;100.00
21817;BME280;13247;47.504;7.382;2023-02-20T00:07:41;98583.06;;;8.85;100.00
21817;BME280;13247;47.504;7.382;2023-02-20T00:10:26;98573.41;;;8.99;100.00
21817;BME280;13247;47.504;7.382;2023-02-20T00:13:11;98560.25;;;9.11;100.00
21817;BME280;13247;47.504;7.382;2023-02-20T00:15:56;98569.78;;;9.19;100.00
21817;BME280;13247;47.504;7.382;2023-02-20T00:18:41;98567.28;;;9.06;100.00
21817;BME280;13247;47.504;7.382;2023-02-20T00:21:25;98578.50;;;9.20;100.00
21817;BME280;13247;47.504;7.382;2023-02-20T00:24:10;98578.53;;;9.15;100.00
21817;BME280;13247;47.504;7.382;2023-02-20T00:26:54;98575.00;;;9.22;100.00
21817;BME280;13247;47.504;7.382;2023-02-20T00:29:39;98585.47;;;9.24;100.00
21817;BME280;13247;47.504;7.382;2023-02-20T00:32:24;98583.72;;;9.23;100.00
21817;BME280;13247;47.504;7.382;2023-02-20T00:35:10;98581.16;;;9.14;100.00
21817;BME280;13247;47.504;7.382;2023-02-20T00:37:55;98582.00;;;9.17;100.00
21817;BME280;13247;47.504;7.382;2023-02-20T00:40:40;98570.63;;;9.24;100.00
21817;BME280;13247;47.504;7.382;2023-02-20T00:43:25;98588.09;;;9.22;100.00
21817;BME280;13247;47.504;7.382;2023-02-20T00:46:13;98576.78;;;9.20;100.00
21817;BME280;13247;47.504;7.382;2023-02-20T00:48:58;98570.69;;;9.15;100.00
21817;BME280;13247;47.504;7.382;2023-02-20T00:51:42;98571.47;;;9.31;100.00
21817;BME280;13247;47.504;7.382;2023-02-20T00:54:28;98583.84;;;9.03;100.00
21817;BME280;13247;47.504;7.382;2023-02-20T00:57:12;98562.94;;;8.99;100.00
21817;BME280;13247;47.504;7.382;2023-02-20T00:59:57;98560.31;;;8.96;100.00
21817;BME280;13247;47.504;7.382;2023-02-20T01:02:41;98566.44;;;8.95;100.00
21817;BME280;13247;47.504;7.382;2023-02-20T01:05:26;98570.84;;;8.84;100.00
21817;BME280;13247;47.504;7.382;2023-02-20T01:08:10;98577.06;;;8.63;100.00
21817;BME280;13247;47.504;7.382;2023-02-20T01:10:55;98587.56;;;8.45;100.00
21817;BME280;13247;47.504;7.382;2023-02-20T01:13:40;98587.63;;;8.01;100.00
21817;BME280;13247;47.504;7.382;2023-02-20T01:16:25;98589.41;;;7.75;100.00
21817;BME280;13247;47.504;7.382;2023-02-20T01:19:09;98600.69;;;7.78;100.00
21817;BME280;13247;47.504;7.382;2023-02-20T01:21:54;98598.94;;;7.88;100.00
21817;BME280;13247;47.504;7.382;2023-02-20T01:24:38;98597.19;;;8.01;100.00
21817;BME280;13247;47.504;7.382;2023-02-20T01:27:23;98589.38;;;7.93;100.00
21817;BME280;13247;47.504;7.382;2023-02-20T01:30:08;98585.03;;;7.83;100.00
21817;BME280;13247;47.504;7.382;2023-02-20T01:32:53;98578.94;;;7.63;100.00
21817;BME280;13247;47.504;7.382;2023-02-20T01:35:38;98588.50;;;7.70;100.00
21817;BME280;13247;47.504;7.382;2023-02-20T01:38:23;98576.31;;;7.67;100.00
21817;BME280;13247;47.504;7.382;2023-02-20T01:41:09;98575.44;;;7.56;100.00
21817;BME280;13247;47.504;7.382;2023-02-20T01:43:55;98589.28;;;7.02;100.00
21817;BME280;13247;47.504;7.382;2023-02-20T01:46:41;98581.50;;;7.13;100.00
21817;BME280;13247;47.504;7.382;2023-02-20T01:49:38;98571.03;;;7.01;100.00
21817;BME280;13247;47.504;7.382;2023-02-20T01:52:27;98571.91;;;6.98;100.00
21817;BME280;13247;47.504;7.382;2023-02-20T01:55:16;98581.47;;;7.05;100.00
21817;BME280;13247;47.504;7.382;2023-02-20T01:58:09;98568.47;;;7.11;100.00
21817;BME280;13247;47.504;7.382;2023-02-20T02:00:57;98570.13;;;6.90;100.00
21817;BME280;13247;47.504;7.382;2023-02-20T02:03:45;98563.97;;;6.67;100.00
21817;BME280;13247;47.504;7.382;2023-02-20T02:06:33;98559.66;;;6.67;100.00
21817;BME280;13247;47.504;7.382;2023-02-20T02:09:48;98561.28;;;6.47;100.00
21817;BME280;13247;47.504;7.382;2023-02-20T02:12:36;98561.22;;;6.38;100.00
21817;BME280;13247;47.504;7.382;2023-02-20T02:15:23;98562.09;;;6.34;100.00
21817;BME280;13247;47.504;7.382;2023-02-20T02:24:34;98560.19;;;6.03;100.00
21817;BME280;13247;47.504;7.382;2023-02-20T02:42:56;98567.78;;;5.79;100.00
21817;BME280;13247;47.504;7.382;2023-02-20T02:48:34;98560.81;;;5.73;100.00
21817;BME280;13247;47.504;7.382;2023-02-20T02:51:25;98565.22;;;5.82;100.00
21817;BME280;13247;47.504;7.382;2023-02-20T02:54:18;98560.00;;;5.82;100.00
21817;BME280;13247;47.504;7.382;2023-02-20T03:00:08;98566.72;;;4.67;100.00
21817;BME280;13247;47.504;7.382;2023-02-20T03:11:32;98550.41;;;5.75;100.00
21817;BME280;13247;47.504;7.382;2023-02-20T03:14:22;98552.31;;;4.95;100.00
21817;BME280;13247;47.504;7.382;2023-02-20T03:18:12;98547.63;;;5.52;100.00
21817;BME280;13247;47.504;7.382;2023-02-20T03:21:04;98552.00;;;5.57;100.00
21817;BME280;13247;47.504;7.382;2023-02-20T03:23:57;98550.25;;;5.53;100.00
21817;BME280;13247;47.504;7.382;2023-02-20T03:26:45;98545.88;;;5.48;100.00
21817;BME280;13247;47.504;7.382;2023-02-20T03:29:35;98552.63;;;5.25;100.00
21817;BME280;13247;47.504;7.382;2023-02-20T03:32:22;98540.34;;;5.12;100.00
21817;BME280;13247;47.504;7.382;2023-02-20T03:35:29;98534.13;;;4.95;100.00
21817;BME280;13247;47.504;7.382;2023-02-20T03:38:37;98541.63;;;4.66;100.00
21817;BME280;13247;47.504;7.382;2023-02-20T03:41:46;98531.09;;;4.54;100.00
21817;BME280;13247;47.504;7.382;2023-02-20T03:44:50;98536.69;;;4.17;100.00
21817;BME280;13247;47.504;7.382;2023-02-20T03:47:39;98530.09;;;4.41;100.00
21817;BME280;13247;47.504;7.382;2023-02-20T03:50:27;98528.75;;;4.75;100.00
21817;BME280;13247;47.504;7.382;2023-02-20T03:53:12;98510.13;;;5.23;100.00
21817;BME280;13247;47.504;7.382;2023-02-20T03:56:00;98506.47;;;5.00;100.00
21817;BME280;13247;47.504;7.382;2023-02-20T03:59:16;98512.81;;;4.43;100.00
21817;BME280;13247;47.504;7.382;2023-02-20T04:02:25;98505.22;;;4.63;100.00
21817;BME280;13247;47.504;7.382;2023-02-20T04:05:20;98509.94;;;4.22;100.00
21817;BME280;13247;47.504;7.382;2023-02-20T04:08:16;98516.72;;;4.13;100.00
21817;BME280;13247;47.504;7.382;2023-02-20T04:11:13;98509.00;;;4.17;100.00
21817;BME280;13247;47.504;7.382;2023-02-20T04:13:59;98520.16;;;4.10;100.00
21817;BME280;13247;47.504;7.382;2023-02-20T04:16:49;98523.84;;;4.27;100.00
21817;BME280;13247;47.504;7.382;2023-02-20T04:19:34;98515.47;;;4.51;100.00
21817;BME280;13247;47.504;7.382;2023-02-20T04:22:24;98513.09;;;4.73;100.00
21817;BME280;13247;47.504;7.382;2023-02-20T04:25:36;98508.25;;;4.24;100.00
21817;BME280;13247;47.504;7.382;2023-02-20T04:28:23;98500.59;;;4.36;100.00
21817;BME280;13247;47.504;7.382;2023-02-20T04:31:11;98508.19;;;4.21;100.00
21817;BME280;13247;47.504;7.382;2023-02-20T04:33:57;98492.84;;;4.41;100.00
21817;BME280;13247;47.504;7.382;2023-02-20T04:36:42;98490.34;;;4.50;100.00
21817;BME280;13247;47.504;7.382;2023-02-20T04:39:26;98484.34;;;4.54;100.00
21817;BME280;13247;47.504;7.382;2023-02-20T04:42:11;98495.41;;;4.36;100.00
21817;BME280;13247;47.504;7.382;2023-02-20T04:44:56;98504.75;;;4.24;100.00
21817;BME280;13247;47.504;7.382;2023-02-20T04:47:41;98491.78;;;4.24;100.00
21817;BME280;13247;47.504;7.382;2023-02-20T04:50:29;98495.44;;;4.41;100.00
21817;BME280;13247;47.504;7.382;2023-02-20T04:53:14;98500.66;;;4.41;100.00
21817;BME280;13247;47.504;7.382;2023-02-20T04:55:58;98504.50;;;4.06;100.00
21817;BME280;13247;47.504;7.382;2023-02-20T04:58:46;98507.91;;;3.98;100.00
21817;BME280;13247;47.504;7.382;2023-02-20T05:01:32;98498.56;;;4.13;100.00
21817;BME280;13247;47.504;7.382;2023-02-20T05:04:18;98499.63;;;3.64;100.00
21817;BME280;13247;47.504;7.382;2023-02-20T05:07:03;98500.63;;;3.73;100.00
21817;BME280;13247;47.504;7.382;2023-02-20T05:09:48;98490.34;;;3.78;100.00
21817;BME280;13247;47.504;7.382;2023-02-20T05:12:33;98499.28;;;4.01;100.00
21817;BME280;13247;47.504;7.382;2023-02-20T05:15:18;98490.78;;;4.13;100.00
21817;BME280;13247;47.504;7.382;2023-02-20T05:18:03;98489.97;;;4.18;100.00
21817;BME280;13247;47.504;7.382;2023-02-20T05:20:48;98482.28;;;4.26;100.00
21817;BME280;13247;47.504;7.382;2023-02-20T05:23:51;98492.06;;;3.80;100.00
21817;BME280;13247;47.504;7.382;2023-02-20T05:26:36;98494.50;;;3.13;100.00
21817;BME280;13247;47.504;7.382;2023-02-20T05:29:21;98486.00;;;3.20;100.00
21817;BME280;13247;47.504;7.382;2023-02-20T05:32:06;98486.53;;;3.01;100.00
21817;BME280;13247;47.504;7.382;2023-02-20T05:34:51;98488.34;;;3.62;100.00
21817;BME280;13247;47.504;7.382;2023-02-20T05:37:35;98490.06;;;3.61;100.00
21817;BME280;13247;47.504;7.382;2023-02-20T05:40:20;98482.50;;;3.76;100.00
21817;BME280;13247;47.504;7.382;2023-02-20T05:43:05;98474.03;;;3.89;100.00
21817;BME280;13247;47.504;7.382;2023-02-20T05:45:49;98480.06;;;3.85;100.00
21817;BME280;13247;47.504;7.382;2023-02-20T05:48:34;98481.97;;;4.00;100.00
21817;BME280;13247;47.504;7.382;2023-02-20T05:51:26;98469.94;;;4.07;100.00
21817;BME280;13247;47.504;7.382;2023-02-20T05:54:11;98469.19;;;4.17;100.00
21817;BME280;13247;47.504;7.382;2023-02-20T05:56:56;98465.69;;;4.12;100.00
21817;BME280;13247;47.504;7.382;2023-02-20T05:59:41;98465.66;;;4.10;100.00
21817;BME280;13247;47.504;7.382;2023-02-20T06:02:25;98478.41;;;3.90;100.00
21817;BME280;13247;47.504;7.382;2023-02-20T06:05:10;98474.66;;;3.72;100.00
21817;BME280;13247;47.504;7.382;2023-02-20T06:07:54;98470.34;;;3.72;100.00
21817;BME280;13247;47.504;7.382;2023-02-20T06:10:39;98467.91;;;3.83;100.00
21817;BME280;13247;47.504;7.382;2023-02-20T06:13:24;98472.03;;;3.69;100.00
21817;BME280;13247;47.504;7.382;2023-02-20T06:16:09;98470.41;;;3.77;100.00
21817;BME280;13247;47.504;7.382;2023-02-20T06:18:55;98467.00;;;3.78;100.00
21817;BME280;13247;47.504;7.382;2023-02-20T06:21:44;98464.59;;;3.94;100.00
21817;BME280;13247;47.504;7.382;2023-02-20T06:24:29;98468.19;;;4.06;100.00
21817;BME280;13247;47.504;7.382;2023-02-20T06:27:15;98468.94;;;3.95;100.00
21817;BME280;13247;47.504;7.382;2023-02-20T06:30:00;98465.56;;;4.03;100.00
21817;BME280;13247;47.504;7.382;2023-02-20T06:32:45;98467.13;;;3.90;100.00
21817;BME280;13247;47.504;7.382;2023-02-20T06:35:30;98463.75;;;3.97;100.00
21817;BME280;13247;47.504;7.382;2023-02-20T06:38:14;98475.00;;;3.96;100.00
21817;BME280;13247;47.504;7.382;2023-02-20T06:40:59;98478.56;;;4.04;100.00
21817;BME280;13247;47.504;7.382;2023-02-20T06:43:43;98482.03;;;4.05;100.00
21817;BME280;13247;47.504;7.382;2023-02-20T06:46:28;98485.31;;;3.93;100.00
21817;BME280;13247;47.504;7.382;2023-02-20T06:49:13;98486.47;;;4.15;100.00
21817;BME280;13247;47.504;7.382;2023-02-20T06:51:58;98481.97;;;3.98;100.00
21817;BME280;13247;47.504;7.382;2023-02-20T06:54:43;98481.06;;;3.96;100.00
21817;BME280;13247;47.504;7.382;2023-02-20T06:57:30;98483.59;;;3.90;100.00
21817;BME280;13247;47.504;7.382;2023-02-20T07:00:16;98479.09;;;3.80;100.00
21817;BME280;13247;47.504;7.382;2023-02-20T07:03:01;98486.13;;;3.86;100.00
21817;BME280;13247;47.504;7.382;2023-02-20T07:05:45;98483.28;;;3.69;100.00
21817;BME280;13247;47.504;7.382;2023-02-20T07:08:30;98489.00;;;3.47;100.00
21817;BME280;13247;47.504;7.382;2023-02-20T07:11:17;98489.00;;;3.47;100.00
21817;BME280;13247;47.504;7.382;2023-02-20T07:14:02;98493.19;;;3.38;100.00
21817;BME280;13247;47.504;7.382;2023-02-20T07:16:47;98491.44;;;3.38;100.00
21817;BME280;13247;47.504;7.382;2023-02-20T07:19:32;98492.66;;;3.61;100.00
21817;BME280;13247;47.504;7.382;2023-02-20T07:22:17;98491.38;;;3.92;100.00
21817;BME280;13247;47.504;7.382;2023-02-20T07:25:02;98496.94;;;5.02;100.00
21817;BME280;13247;47.504;7.382;2023-02-20T07:27:47;98505.78;;;4.35;100.00
21817;BME280;13247;47.504;7.382;2023-02-20T07:30:31;98506.41;;;4.17;100.00
21817;BME280;13247;47.504;7.382;2023-02-20T07:33:17;98508.09;;;4.14;100.00
21817;BME280;13247;47.504;7.382;2023-02-20T07:36:02;98508.13;;;4.15;100.00
21817;BME280;13247;47.504;7.382;2023-02-20T07:38:59;98509.94;;;4.22;100.00
21817;BME280;13247;47.504;7.382;2023-02-20T07:41:44;98504.81;;;4.28;100.00
21817;BME280;13247;47.504;7.382;2023-02-20T07:44:29;98506.59;;;4.32;100.00
21817;BME280;13247;47.504;7.382;2023-02-20T07:47:13;98499.72;;;4.37;100.00
21817;BME280;13247;47.504;7.382;2023-02-20T07:49:58;98502.44;;;4.46;100.00
21817;BME280;13247;47.504;7.382;2023-02-20T07:52:43;98493.88;;;4.55;100.00
21817;BME280;13247;47.504;7.382;2023-02-20T07:55:28;98500.19;;;4.79;100.00
21817;BME280;13247;47.504;7.382;2023-02-20T07:58:13;98495.19;;;4.98;100.00
21817;BME280;13247;47.504;7.382;2023-02-20T08:00:58;98487.56;;;5.17;100.00
21817;BME280;13247;47.504;7.382;2023-02-20T08:03:42;98491.97;;;5.29;100.00
21817;BME280;13247;47.504;7.382;2023-02-20T08:06:27;98491.22;;;5.40;100.00
21817;BME280;13247;47.504;7.382;2023-02-20T08:09:12;98484.38;;;5.53;100.00
21817;BME280;13247;47.504;7.382;2023-02-20T08:11:57;98488.84;;;5.78;100.00
21817;BME280;13247;47.504;7.382;2023-02-20T08:14:42;98486.34;;;5.92;100.00
21817;BME280;13247;47.504;7.382;2023-02-20T08:17:26;98488.19;;;6.09;100.00
21817;BME280;13247;47.504;7.382;2023-02-20T08:20:13;98490.78;;;6.08;100.00
21817;BME280;13247;47.504;7.382;2023-02-20T08:22:58;98489.91;;;6.06;100.00
21817;BME280;13247;47.504;7.382;2023-02-20T08:25:44;98482.16;;;6.25;100.00
21817;BME280;13247;47.504;7.382;2023-02-20T08:28:29;98477.84;;;6.26;100.00
21817;BME280;13247;47.504;7.382;2023-02-20T08:31:13;98481.31;;;6.28;100.00
21817;BME280;13247;47.504;7.382;2023-02-20T08:33:58;98485.69;;;6.33;100.00
21817;BME280;13247;47.504;7.382;2023-02-20T08:36:43;98477.06;;;6.48;100.00
21817;BME280;13247;47.504;7.382;2023-02-20T08:39:28;98482.31;;;6.74;100.00
21817;BME280;13247;47.504;7.382;2023-02-20T08:42:15;98475.38;;;6.86;100.00
21817;BME280;13247;47.504;7.382;2023-02-20T08:45:00;98466.72;;;6.92;100.00
21817;BME280;13247;47.504;7.382;2023-02-20T08:47:45;98470.19;;;7.01;100.00
21817;BME280;13247;47.504;7.382;2023-02-20T08:50:31;98471.09;;;7.09;100.00
21817;BME280;13247;47.504;7.382;2023-02-20T08:53:16;98473.69;;;7.11;100.00
21817;BME280;13247;47.504;7.382;2023-02-20T08:56:00;98461.50;;;7.19;100.00
21817;BME280;13247;47.504;7.382;2023-02-20T08:58:45;98467.59;;;7.23;100.00
21817;BME280;13247;47.504;7.382;2023-02-20T09:01:30;98466.72;;;7.37;100.00
21817;BME280;13247;47.504;7.382;2023-02-20T09:04:14;98458.00;;;7.44;100.00
21817;BME280;13247;47.504;7.382;2023-02-20T09:07:00;98458.00;;;7.55;100.00
21817;BME280;13247;47.504;7.382;2023-02-20T09:09:45;98463.22;;;7.70;100.00
21817;BME280;13247;47.504;7.382;2023-02-20T09:12:29;98459.72;;;7.78;100.00
21817;BME280;13247;47.504;7.382;2023-02-20T09:15:15;98462.28;;;7.84;100.00
21817;BME280;13247;47.504;7.382;2023-02-20T09:18:03;98458.81;;;7.91;100.00
21817;BME280;13247;47.504;7.382;2023-02-20T09:20:50;98450.88;;;8.17;100.00
21817;BME280;13247;47.504;7.382;2023-02-20T09:23:34;98454.38;;;8.25;100.00
21817;BME280;13247;47.504;7.382;2023-02-20T09:26:19;98454.38;;;8.25;100.00
21817;BME280;13247;47.504;7.382;2023-02-20T09:29:03;98443.78;;;8.45;100.00
21817;BME280;13247;47.504;7.382;2023-02-20T09:31:48;98439.38;;;8.57;100.00
21817;BME280;13247;47.504;7.382;2023-02-20T09:34:32;98435.84;;;8.64;100.00
21817;BME280;13247;47.504;7.382;2023-02-20T09:37:17;98436.63;;;8.77;100.00
21817;BME280;13247;47.504;7.382;2023-02-20T09:40:01;98429.53;;;8.94;100.00
21817;BME280;13247;47.504;7.382;2023-02-20T09:45:50;98432.88;;;9.13;100.00
21817;BME280;13247;47.504;7.382;2023-02-20T09:52:03;98429.19;;;9.33;100.00
21817;BME280;13247;47.504;7.382;2023-02-20T09:54:57;98432.59;;;9.47;100.00
21817;BME280;13247;47.504;7.382;2023-02-20T09:57:48;98429.06;;;9.48;100.00
21817;BME280;13247;47.504;7.382;2023-02-20T10:00:35;98428.13;;;9.57;100.00
21817;BME280;13247;47.504;7.382;2023-02-20T10:03:31;98416.56;;;9.78;100.00
21817;BME280;13247;47.504;7.382;2023-02-20T10:06:23;98412.94;;;9.89;100.00
21817;BME280;13247;47.504;7.382;2023-02-20T10:09:14;98400.56;;;10.00;100.00
21817;BME280;13247;47.504;7.382;2023-02-20T10:12:08;98400.44;;;10.14;100.00
21817;BME280;13247;47.504;7.382;2023-02-20T10:15:11;98386.31;;;10.25;100.00
21817;BME280;13247;47.504;7.382;2023-02-20T10:18:28;98381.91;;;10.27;100.00
21817;BME280;13247;47.504;7.382;2023-02-20T10:30:22;98361.91;;;10.80;100.00
21817;BME280;13247;47.504;7.382;2023-02-20T10:36:24;98352.63;;;11.13;100.00
21817;BME280;13247;47.504;7.382;2023-02-20T10:39:16;98367.13;;;11.33;100.00
21817;BME280;13247;47.504;7.382;2023-02-20T10:42:11;98371.88;;;11.60;100.00
21817;BME280;13247;47.504;7.382;2023-02-20T10:45:02;98386.78;;;11.58;99.62
21817;BME280;13247;47.504;7.382;2023-02-20T10:48:15;98376.56;;;11.43;100.00
21817;BME280;13247;47.504;7.382;2023-02-20T10:54:24;98350.63;;;11.74;100.00
21817;BME280;13247;47.504;7.382;2023-02-20T10:57:24;98344.06;;;11.95;100.00
21817;BME280;13247;47.504;7.382;2023-02-20T11:00:40;98330.00;;;11.96;100.00
21817;BME280;13247;47.504;7.382;2023-02-20T11:03:47;98342.47;;;12.29;99.67
21817;BME280;13247;47.504;7.382;2023-02-20T11:07:09;98339.47;;;12.44;99.97
21817;BME280;13247;47.504;7.382;2023-02-20T11:09:55;98331.03;;;12.30;99.96
21817;BME280;13247;47.504;7.382;2023-02-20T11:12:40;98324.16;;;12.24;100.00
21817;BME280;13247;47.504;7.382;2023-02-20T11:15:29;98314.47;;;12.63;100.00
21817;BME280;13247;47.504;7.382;2023-02-20T11:18:34;98298.56;;;12.69;97.47
21817;BME280;13247;47.504;7.382;2023-02-20T11:21:48;98292.38;;;12.70;94.82
21817;BME280;13247;47.504;7.382;2023-02-20T11:24:38;98294.22;;;12.65;99.29
21817;BME280;13247;47.504;7.382;2023-02-20T11:27:25;98275.00;;;12.97;96.33
21817;BME280;13247;47.504;7.382;2023-02-20T11:30:30;98272.25;;;13.03;89.06
21817;BME280;13247;47.504;7.382;2023-02-20T11:33:24;98273.19;;;13.00;94.90
21817;BME280;13247;47.504;7.382;2023-02-20T11:36:22;98263.66;;;13.28;88.80
21817;BME280;13247;47.504;7.382;2023-02-20T11:39:23;98256.28;;;13.41;87.47
21817;BME280;13247;47.504;7.382;2023-02-20T11:42:15;98256.56;;;13.30;94.27
21817;BME280;13247;47.504;7.382;2023-02-20T11:45:24;98245.25;;;13.27;89.80
21817;BME280;13247;47.504;7.382;2023-02-20T11:48:18;98246.88;;;13.32;86.08
21817;BME280;13247;47.504;7.382;2023-02-20T11:51:04;98250.69;;;13.53;88.22
21817;BME280;13247;47.504;7.382;2023-02-20T11:54:07;98242.53;;;13.90;84.57
21817;BME280;13247;47.504;7.382;2023-02-20T11:59:51;98225.53;;;14.29;76.84
21817;BME280;13247;47.504;7.382;2023-02-20T12:05:54;98210.84;;;13.64;79.69
21817;BME280;13247;47.504;7.382;2023-02-20T12:08:52;98218.81;;;13.90;76.15
21817;BME280;13247;47.504;7.382;2023-02-20T12:11:38;98214.13;;;14.27;71.88
21817;BME280;13247;47.504;7.382;2023-02-20T12:14:23;98215.16;;;14.51;74.46
21817;BME280;13247;47.504;7.382;2023-02-20T12:20:14;98200.53;;;14.91;71.97
21817;BME280;13247;47.504;7.382;2023-02-20T12:23:11;98200.81;;;15.09;69.74
21817;BME280;13247;47.504;7.382;2023-02-20T12:26:18;98196.84;;;15.22;71.03
21817;BME280;13247;47.504;7.382;2023-02-20T12:30:14;98188.53;;;15.08;69.06
21817;BME280;13247;47.504;7.382;2023-02-20T12:33:04;98182.69;;;15.23;69.81
21817;BME280;13247;47.504;7.382;2023-02-20T12:39:51;98179.84;;;14.79;70.59
21817;BME280;13247;47.504;7.382;2023-02-20T12:42:52;98169.28;;;14.79;73.08
21817;BME280;13247;47.504;7.382;2023-02-20T12:45:54;98165.41;;;14.89;73.34
21817;BME280;13247;47.504;7.382;2023-02-20T12:49:15;98166.38;;;15.12;72.78
21817;BME280;13247;47.504;7.382;2023-02-20T12:55:22;98159.13;;;15.17;73.91
21817;BME280;13247;47.504;7.382;2023-02-20T12:58:30;98165.69;;;15.30;63.68
21817;BME280;13247;47.504;7.382;2023-02-20T13:01:20;98154.91;;;15.36;64.05
21817;BME280;13247;47.504;7.382;2023-02-20T13:04:30;98146.66;;;15.45;64.32
21817;BME280;13247;47.504;7.382;2023-02-20T13:07:52;98135.25;;;15.20;66.68
21817;BME280;13247;47.504;7.382;2023-02-20T13:10:55;98133.44;;;15.45;68.15
21817;BME280;13247;47.504;7.382;2023-02-20T13:17:17;98130.84;;;14.95;70.33
21817;BME280;13247;47.504;7.382;2023-02-20T13:20:26;98126.97;;;15.06;65.08
21817;BME280;13247;47.504;7.382;2023-02-20T13:25:59;98121.47;;;15.35;60.95
21817;BME280;13247;47.504;7.382;2023-02-20T13:28:44;98122.94;;;15.43;57.41
21817;BME280;13247;47.504;7.382;2023-02-20T13:34:33;98110.81;;;15.83;57.18
21817;BME280;13247;47.504;7.382;2023-02-20T13:48:57;98101.34;;;15.77;56.14
21817;BME280;13247;47.504;7.382;2023-02-20T13:51:42;98102.50;;;15.92;55.99
21817;BME280;13247;47.504;7.382;2023-02-20T13:54:28;98087.88;;;16.25;53.74
21817;BME280;13247;47.504;7.382;2023-02-20T13:57:17;98095.59;;;15.66;58.21
21817;BME280;13247;47.504;7.382;2023-02-20T14:00:18;98084.97;;;16.11;54.71
21817;BME280;13247;47.504;7.382;2023-02-20T14:03:22;98086.56;;;15.93;56.40
21817;BME280;13247;47.504;7.382;2023-02-20T14:09:20;98085.06;;;15.86;54.87
21817;BME280;13247;47.504;7.382;2023-02-20T14:12:11;98065.47;;;16.13;53.06
21817;BME280;13247;47.504;7.382;2023-02-20T14:14:56;98067.06;;;15.96;52.18
21817;BME280;13247;47.504;7.382;2023-02-20T14:17:42;98064.84;;;15.85;52.74
21817;BME280;13247;47.504;7.382;2023-02-20T14:20:36;98059.75;;;16.22;53.40
21817;BME280;13247;47.504;7.382;2023-02-20T14:23:27;98049.56;;;16.13;55.02
21817;BME280;13247;47.504;7.382;2023-02-20T14:26:28;98050.97;;;16.22;53.57
21817;BME280;13247;47.504;7.382;2023-02-20T14:29:29;98053.53;;;16.43;53.59
21817;BME280;13247;47.504;7.382;2023-02-20T14:32:15;98047.56;;;16.18;52.66
21817;BME280;13247;47.504;7.382;2023-02-20T14:41:21;98028.94;;;16.21;51.13
21817;BME280;13247;47.504;7.382;2023-02-20T14:44:13;98031.63;;;16.20;51.18
21817;BME280;13247;47.504;7.382;2023-02-20T14:47:10;98029.59;;;16.46;49.65
21817;BME280;13247;47.504;7.382;2023-02-20T14:50:13;98027.06;;;16.43;51.87
21817;BME280;13247;47.504;7.382;2023-02-20T14:53:09;98023.63;;;17.00;50.95
21817;BME280;13247;47.504;7.382;2023-02-20T14:55:56;98017.34;;;17.03;48.71
21817;BME280;13247;47.504;7.382;2023-02-20T14:58:40;98025.09;;;16.69;49.12
21817;BME280;13247;47.504;7.382;2023-02-20T15:01:31;98021.19;;;16.77;49.64
21817;BME280;13247;47.504;7.382;2023-02-20T15:04:20;98004.03;;;17.42;47.99
21817;BME280;13247;47.504;7.382;2023-02-20T15:07:06;98003.19;;;17.77;47.64
21817;BME280;13247;47.504;7.382;2023-02-20T15:09:58;98018.72;;;16.73;50.05
21817;BME280;13247;47.504;7.382;2023-02-20T15:12:44;98012.53;;;16.74;50.26
21817;BME280;13247;47.504;7.382;2023-02-20T15:15:34;98012.91;;;16.85;51.38
21817;BME280;13247;47.504;7.382;2023-02-20T15:18:33;98004.84;;;16.68;52.27
21817;BME280;13247;47.504;7.382;2023-02-20T15:21:35;98016.13;;;16.53;49.92
21817;BME280;13247;47.504;7.382;2023-02-20T15:24:33;98008.59;;;17.01;51.34
21817;BME280;13247;47.504;7.382;2023-02-20T15:27:21;98003.50;;;16.78;51.28
21817;BME280;13247;47.504;7.382;2023-02-20T15:30:16;98006.53;;;17.26;49.75
21817;BME280;13247;47.504;7.382;2023-02-20T15:33:01;97996.59;;;17.31;46.43
21817;BME280;13247;47.504;7.382;2023-02-20T15:35:46;98001.94;;;17.11;46.61
21817;BME280;13247;47.504;7.382;2023-02-20T15:38:34;98005.66;;;17.25;47.34
21817;BME280;13247;47.504;7.382;2023-02-20T15:41:19;97999.88;;;17.17;47.90
21817;BME280;13247;47.504;7.382;2023-02-20T15:44:04;97995.16;;;17.05;49.27
21817;BME280;13247;47.504;7.382;2023-02-20T15:46:49;97992.63;;;17.02;47.75
21817;BME280;13247;47.504;7.382;2023-02-20T15:49:34;97992.13;;;16.94;48.09
21817;BME280;13247;47.504;7.382;2023-02-20T15:52:26;97993.78;;;16.97;49.33
21817;BME280;13247;47.504;7.382;2023-02-20T15:55:17;97991.31;;;16.74;50.96
21817;BME280;13247;47.504;7.382;2023-02-20T15:58:15;97990.06;;;16.62;51.26
21817;BME280;13247;47.504;7.382;2023-02-20T16:01:04;97994.06;;;16.52;53.95
21817;BME280;13247;47.504;7.382;2023-02-20T16:03:49;97981.78;;;16.51;56.23
21817;BME280;13247;47.504;7.382;2023-02-20T16:06:34;97973.34;;;16.41;56.17
21817;BME280;13247;47.504;7.382;2023-02-20T16:09:19;97968.25;;;16.17;59.13
21817;BME280;13247;47.504;7.382;2023-02-20T16:12:04;97972.44;;;16.02;60.26
21817;BME280;13247;47.504;7.382;2023-02-20T16:14:49;97966.50;;;15.76;62.49
21817;BME280;13247;47.504;7.382;2023-02-20T16:17:37;97975.06;;;15.39;67.42
21817;BME280;13247;47.504;7.382;2023-02-20T16:20:27;97964.81;;;14.86;73.25
21817;BME280;13247;47.504;7.382;2023-02-20T16:23:12;97977.31;;;14.58;76.83
21817;BME280;13247;47.504;7.382;2023-02-20T16:25:57;97973.84;;;14.33;79.81
21817;BME280;13247;47.504;7.382;2023-02-20T16:28:42;97974.75;;;14.07;82.17
21817;BME280;13247;47.504;7.382;2023-02-20T16:34:36;97969.31;;;14.12;82.35
21817;BME280;13247;47.504;7.382;2023-02-20T16:37:23;97978.09;;;13.62;87.56
21817;BME280;13247;47.504;7.382;2023-02-20T16:40:08;97973.09;;;13.26;92.04
21817;BME280;13247;47.504;7.382;2023-02-20T16:42:53;97980.03;;;13.00;95.66
21817;BME280;13247;47.504;7.382;2023-02-20T16:45:38;97980.75;;;12.77;98.10
21817;BME280;13247;47.504;7.382;2023-02-20T16:48:26;97975.47;;;12.48;100.00